sensor_id;sensor_type;location;lat;lon;timestamp;temperature;humidity
57026;DHT22;43961;52.940;6.834;2022-10-23T00:00:56;8.90;99.90
57026;DHT22;43961;52.940;6.834;2022-10-23T00:03:21;8.90;99.90
57026;DHT22;43961;52.940;6.834;2022-10-23T00:05:47;8.90;99.90
57026;DHT22;43961;52.940;6.834;2022-10-23T00:08:13;8.90;99.90
57026;DHT22;43961;52.940;6.834;2022-10-23T00:10:41;9.00;99.90
57026;DHT22;43961;52.940;6.834;2022-10-23T00:13:07;9.00;99.90
57026;DHT22;43961;52.940;6.834;2022-10-23T00:15:34;9.00;99.90
57026;DHT22;43961;52.940;6.834;2022-10-23T00:18:01;9.10;99.90
57026;DHT22;43961;52.940;6.834;2022-10-23T00:20:26;9.00;99.90
57026;DHT22;43961;52.940;6.834;2022-10-23T00:22:52;9.00;99.90
57026;DHT22;43961;52.940;6.834;2022-10-23T00:25:17;9.00;99.90
57026;DHT22;43961;52.940;6.834;2022-10-23T00:27:44;9.00;99.90
57026;DHT22;43961;52.940;6.834;2022-10-23T00:30:11;9.00;99.90
57026;DHT22;43961;52.940;6.834;2022-10-23T00:32:37;9.00;99.90
57026;DHT22;43961;52.940;6.834;2022-10-23T00:35:03;9.00;99.90
57026;DHT22;43961;52.940;6.834;2022-10-23T00:37:29;8.90;99.90
57026;DHT22;43961;52.940;6.834;2022-10-23T00:39:55;8.90;99.90
57026;DHT22;43961;52.940;6.834;2022-10-23T00:42:22;8.90;99.90
57026;DHT22;43961;52.940;6.834;2022-10-23T00:47:13;8.90;99.90
57026;DHT22;43961;52.940;6.834;2022-10-23T00:49:39;8.90;99.90
57026;DHT22;43961;52.940;6.834;2022-10-23T00:52:07;8.90;99.90
57026;DHT22;43961;52.940;6.834;2022-10-23T00:54:36;8.90;99.90
57026;DHT22;43961;52.940;6.834;2022-10-23T00:57:05;8.90;99.90
57026;DHT22;43961;52.940;6.834;2022-10-23T00:59:32;8.80;99.90
57026;DHT22;43961;52.940;6.834;2022-10-23T01:01:58;8.80;99.90
57026;DHT22;43961;52.940;6.834;2022-10-23T01:04:26;8.90;99.90
57026;DHT22;43961;52.940;6.834;2022-10-23T01:07:28;8.80;99.90
57026;DHT22;43961;52.940;6.834;2022-10-23T01:10:07;8.80;99.90
57026;DHT22;43961;52.940;6.834;2022-10-23T01:13:40;8.90;99.90
57026;DHT22;43961;52.940;6.834;2022-10-23T01:18:27;8.80;99.90
57026;DHT22;43961;52.940;6.834;2022-10-23T01:21:11;8.90;99.90
57026;DHT22;43961;52.940;6.834;2022-10-23T01:26:41;8.70;99.90
57026;DHT22;43961;52.940;6.834;2022-10-23T01:29:32;8.70;99.90
57026;DHT22;43961;52.940;6.834;2022-10-23T01:32:09;8.60;99.90
57026;DHT22;43961;52.940;6.834;2022-10-23T01:34:49;8.50;99.90
57026;DHT22;43961;52.940;6.834;2022-10-23T01:37:22;8.50;99.90
57026;DHT22;43961;52.940;6.834;2022-10-23T01:39:53;8.60;99.90
57026;DHT22;43961;52.940;6.834;2022-10-23T01:42:33;8.60;99.90
57026;DHT22;43961;52.940;6.834;2022-10-23T01:45:08;8.60;99.90
57026;DHT22;43961;52.940;6.834;2022-10-23T01:47:38;8.50;99.90
57026;DHT22;43961;52.940;6.834;2022-10-23T01:50:05;8.50;99.90
57026;DHT22;43961;52.940;6.834;2022-10-23T01:52:32;8.50;99.90
57026;DHT22;43961;52.940;6.834;2022-10-23T01:54:59;8.50;99.90
57026;DHT22;43961;52.940;6.834;2022-10-23T01:57:28;8.60;99.90
57026;DHT22;43961;52.940;6.834;2022-10-23T02:00:03;8.60;99.90
57026;DHT22;43961;52.940;6.834;2022-10-23T02:02:32;8.60;99.90
57026;DHT22;43961;52.940;6.834;2022-10-23T02:05:06;8.60;99.90
57026;DHT22;43961;52.940;6.834;2022-10-23T02:07:34;8.70;99.90
57026;DHT22;43961;52.940;6.834;2022-10-23T02:10:05;8.70;99.90
57026;DHT22;43961;52.940;6.834;2022-10-23T02:18:01;8.80;99.90
57026;DHT22;43961;52.940;6.834;2022-10-23T02:20:34;8.80;99.90
57026;DHT22;43961;52.940;6.834;2022-10-23T02:23:20;8.80;99.90
57026;DHT22;43961;52.940;6.834;2022-10-23T02:26:03;8.90;99.90
57026;DHT22;43961;52.940;6.834;2022-10-23T02:28:40;9.10;99.90
57026;DHT22;43961;52.940;6.834;2022-10-23T02:31:09;9.00;99.90
57026;DHT22;43961;52.940;6.834;2022-10-23T02:33:36;9.10;99.90
57026;DHT22;43961;52.940;6.834;2022-10-23T02:36:03;9.10;99.90
57026;DHT22;43961;52.940;6.834;2022-10-23T02:38:40;9.10;99.90
57026;DHT22;43961;52.940;6.834;2022-10-23T02:46:50;9.20;99.90
57026;DHT22;43961;52.940;6.834;2022-10-23T02:52:25;9.30;99.90
57026;DHT22;43961;52.940;6.834;2022-10-23T02:55:16;9.30;99.90
57026;DHT22;43961;52.940;6.834;2022-10-23T02:57:52;9.40;99.90
57026;DHT22;43961;52.940;6.834;2022-10-23T03:00:20;9.30;99.90
57026;DHT22;43961;52.940;6.834;2022-10-23T03:02:58;9.30;99.90
57026;DHT22;43961;52.940;6.834;2022-10-23T03:05:31;9.30;99.90
57026;DHT22;43961;52.940;6.834;2022-10-23T03:07:57;9.30;99.90
57026;DHT22;43961;52.940;6.834;2022-10-23T03:10:23;9.30;99.90
57026;DHT22;43961;52.940;6.834;2022-10-23T03:12:49;9.30;99.90
57026;DHT22;43961;52.940;6.834;2022-10-23T03:15:15;9.30;99.90
57026;DHT22;43961;52.940;6.834;2022-10-23T03:17:41;9.20;99.90
57026;DHT22;43961;52.940;6.834;2022-10-23T03:20:08;9.30;99.90
57026;DHT22;43961;52.940;6.834;2022-10-23T03:22:33;9.30;99.90
57026;DHT22;43961;52.940;6.834;2022-10-23T03:24:59;9.30;99.90
57026;DHT22;43961;52.940;6.834;2022-10-23T03:27:25;9.30;99.90
57026;DHT22;43961;52.940;6.834;2022-10-23T03:29:50;9.40;99.90
57026;DHT22;43961;52.940;6.834;2022-10-23T03:32:16;9.30;99.90
57026;DHT22;43961;52.940;6.834;2022-10-23T03:34:42;9.30;99.90
57026;DHT22;43961;52.940;6.834;2022-10-23T03:37:07;9.30;99.90
57026;DHT22;43961;52.940;6.834;2022-10-23T03:39:33;9.20;99.90
57026;DHT22;43961;52.940;6.834;2022-10-23T03:41:59;9.20;99.90
57026;DHT22;43961;52.940;6.834;2022-10-23T03:44:24;9.20;99.90
57026;DHT22;43961;52.940;6.834;2022-10-23T03:46:50;9.20;99.90
57026;DHT22;43961;52.940;6.834;2022-10-23T03:49:15;9.10;99.90
57026;DHT22;43961;52.940;6.834;2022-10-23T03:51:41;9.10;99.90
57026;DHT22;43961;52.940;6.834;2022-10-23T03:54:08;9.10;99.90
57026;DHT22;43961;52.940;6.834;2022-10-23T03:56:34;9.00;99.90
57026;DHT22;43961;52.940;6.834;2022-10-23T03:59:00;9.10;99.90
57026;DHT22;43961;52.940;6.834;2022-10-23T04:01:26;9.00;99.90
57026;DHT22;43961;52.940;6.834;2022-10-23T04:03:51;9.00;99.90
57026;DHT22;43961;52.940;6.834;2022-10-23T04:06:17;9.10;99.90
57026;DHT22;43961;52.940;6.834;2022-10-23T04:08:43;9.00;99.90
57026;DHT22;43961;52.940;6.834;2022-10-23T04:11:10;9.00;99.90
57026;DHT22;43961;52.940;6.834;2022-10-23T04:13:35;8.90;99.90
57026;DHT22;43961;52.940;6.834;2022-10-23T04:16:01;8.90;99.90
57026;DHT22;43961;52.940;6.834;2022-10-23T04:18:27;8.90;99.90
57026;DHT22;43961;52.940;6.834;2022-10-23T04:20:53;8.80;99.90
57026;DHT22;43961;52.940;6.834;2022-10-23T04:23:20;8.80;99.90
57026;DHT22;43961;52.940;6.834;2022-10-23T04:25:47;8.80;99.90
57026;DHT22;43961;52.940;6.834;2022-10-23T04:28:12;8.80;99.90
57026;DHT22;43961;52.940;6.834;2022-10-23T04:30:38;8.70;99.90
57026;DHT22;43961;52.940;6.834;2022-10-23T04:33:03;8.70;99.90
57026;DHT22;43961;52.940;6.834;2022-10-23T04:35:29;8.70;99.90
57026;DHT22;43961;52.940;6.834;2022-10-23T04:37:54;8.70;99.90
57026;DHT22;43961;52.940;6.834;2022-10-23T04:40:20;8.70;99.90
57026;DHT22;43961;52.940;6.834;2022-10-23T04:42:46;8.60;99.90
57026;DHT22;43961;52.940;6.834;2022-10-23T04:45:11;8.60;99.90
57026;DHT22;43961;52.940;6.834;2022-10-23T04:47:37;8.60;99.90
57026;DHT22;43961;52.940;6.834;2022-10-23T04:50:03;8.60;99.90
57026;DHT22;43961;52.940;6.834;2022-10-23T04:52:29;8.50;99.90
57026;DHT22;43961;52.940;6.834;2022-10-23T04:54:54;8.50;99.90
57026;DHT22;43961;52.940;6.834;2022-10-23T04:57:20;8.50;99.90
57026;DHT22;43961;52.940;6.834;2022-10-23T04:59:46;8.50;99.90
57026;DHT22;43961;52.940;6.834;2022-10-23T05:02:11;8.50;99.90
57026;DHT22;43961;52.940;6.834;2022-10-23T05:04:37;8.50;99.90
57026;DHT22;43961;52.940;6.834;2022-10-23T05:07:03;8.50;99.90
57026;DHT22;43961;52.940;6.834;2022-10-23T05:09:28;8.50;99.90
57026;DHT22;43961;52.940;6.834;2022-10-23T05:11:54;8.60;99.90
57026;DHT22;43961;52.940;6.834;2022-10-23T05:14:19;8.60;99.90
57026;DHT22;43961;52.940;6.834;2022-10-23T05:16:45;8.50;99.90
57026;DHT22;43961;52.940;6.834;2022-10-23T05:19:17;8.50;99.90
57026;DHT22;43961;52.940;6.834;2022-10-23T05:21:46;8.40;99.90
57026;DHT22;43961;52.940;6.834;2022-10-23T05:24:12;8.40;99.90
57026;DHT22;43961;52.940;6.834;2022-10-23T05:26:38;8.40;99.90
57026;DHT22;43961;52.940;6.834;2022-10-23T05:29:04;8.30;99.90
57026;DHT22;43961;52.940;6.834;2022-10-23T05:31:30;8.40;99.90
57026;DHT22;43961;52.940;6.834;2022-10-23T05:33:59;8.30;99.90
57026;DHT22;43961;52.940;6.834;2022-10-23T05:36:25;8.30;99.90
57026;DHT22;43961;52.940;6.834;2022-10-23T05:38:52;8.30;99.90
57026;DHT22;43961;52.940;6.834;2022-10-23T05:41:18;8.20;99.90
57026;DHT22;43961;52.940;6.834;2022-10-23T05:43:43;8.20;99.90
57026;DHT22;43961;52.940;6.834;2022-10-23T05:46:11;8.40;99.90
57026;DHT22;43961;52.940;6.834;2022-10-23T05:48:36;8.20;99.90
57026;DHT22;43961;52.940;6.834;2022-10-23T05:51:07;8.10;99.90
57026;DHT22;43961;52.940;6.834;2022-10-23T05:53:33;8.10;99.90
57026;DHT22;43961;52.940;6.834;2022-10-23T05:56:05;8.20;99.90
57026;DHT22;43961;52.940;6.834;2022-10-23T05:58:33;8.20;99.90
57026;DHT22;43961;52.940;6.834;2022-10-23T06:00:58;8.20;99.90
57026;DHT22;43961;52.940;6.834;2022-10-23T06:03:24;8.10;99.90
57026;DHT22;43961;52.940;6.834;2022-10-23T06:05:50;8.10;99.90
57026;DHT22;43961;52.940;6.834;2022-10-23T06:08:17;8.10;99.90
57026;DHT22;43961;52.940;6.834;2022-10-23T06:10:42;8.20;99.90
57026;DHT22;43961;52.940;6.834;2022-10-23T06:13:08;8.20;99.90
57026;DHT22;43961;52.940;6.834;2022-10-23T06:15:34;8.10;99.90
57026;DHT22;43961;52.940;6.834;2022-10-23T06:18:04;8.10;99.90
57026;DHT22;43961;52.940;6.834;2022-10-23T06:20:29;8.10;99.90
57026;DHT22;43961;52.940;6.834;2022-10-23T06:22:55;8.20;99.90
57026;DHT22;43961;52.940;6.834;2022-10-23T06:25:21;8.10;99.90
57026;DHT22;43961;52.940;6.834;2022-10-23T06:27:47;8.30;99.90
57026;DHT22;43961;52.940;6.834;2022-10-23T06:30:12;8.20;99.90
57026;DHT22;43961;52.940;6.834;2022-10-23T06:32:38;8.20;99.90
57026;DHT22;43961;52.940;6.834;2022-10-23T06:35:04;8.20;99.90
57026;DHT22;43961;52.940;6.834;2022-10-23T06:37:33;8.20;99.90
57026;DHT22;43961;52.940;6.834;2022-10-23T06:39:58;8.30;99.90
57026;DHT22;43961;52.940;6.834;2022-10-23T06:42:24;8.10;99.90
57026;DHT22;43961;52.940;6.834;2022-10-23T06:44:50;8.10;99.90
57026;DHT22;43961;52.940;6.834;2022-10-23T06:47:15;8.20;99.90
57026;DHT22;43961;52.940;6.834;2022-10-23T06:49:41;8.30;99.90
57026;DHT22;43961;52.940;6.834;2022-10-23T06:52:07;8.20;99.90
57026;DHT22;43961;52.940;6.834;2022-10-23T06:54:32;8.20;99.90
57026;DHT22;43961;52.940;6.834;2022-10-23T06:56:58;8.30;99.90
57026;DHT22;43961;52.940;6.834;2022-10-23T06:59:24;8.40;99.90
57026;DHT22;43961;52.940;6.834;2022-10-23T07:01:49;8.40;99.90
57026;DHT22;43961;52.940;6.834;2022-10-23T07:04:16;8.50;99.90
57026;DHT22;43961;52.940;6.834;2022-10-23T07:06:42;8.60;99.90
57026;DHT22;43961;52.940;6.834;2022-10-23T07:09:07;8.70;99.90
57026;DHT22;43961;52.940;6.834;2022-10-23T07:11:33;8.60;99.90
57026;DHT22;43961;52.940;6.834;2022-10-23T07:13:59;8.70;99.90
57026;DHT22;43961;52.940;6.834;2022-10-23T07:16:25;8.80;99.90
57026;DHT22;43961;52.940;6.834;2022-10-23T07:18:55;8.90;99.90
57026;DHT22;43961;52.940;6.834;2022-10-23T07:21:33;8.90;99.90
57026;DHT22;43961;52.940;6.834;2022-10-23T07:23:59;9.00;99.90
57026;DHT22;43961;52.940;6.834;2022-10-23T07:26:25;9.10;99.90
57026;DHT22;43961;52.940;6.834;2022-10-23T07:28:52;9.20;99.90
57026;DHT22;43961;52.940;6.834;2022-10-23T07:31:24;9.40;99.90
57026;DHT22;43961;52.940;6.834;2022-10-23T07:33:51;9.20;99.90
57026;DHT22;43961;52.940;6.834;2022-10-23T07:36:17;9.20;99.90
57026;DHT22;43961;52.940;6.834;2022-10-23T07:38:43;9.30;99.90
57026;DHT22;43961;52.940;6.834;2022-10-23T07:41:10;9.30;99.90
57026;DHT22;43961;52.940;6.834;2022-10-23T07:43:36;9.30;99.90
57026;DHT22;43961;52.940;6.834;2022-10-23T07:46:02;9.40;99.90
57026;DHT22;43961;52.940;6.834;2022-10-23T07:48:28;9.40;99.90
57026;DHT22;43961;52.940;6.834;2022-10-23T07:50:58;9.50;99.90
57026;DHT22;43961;52.940;6.834;2022-10-23T07:53:25;9.50;99.90
57026;DHT22;43961;52.940;6.834;2022-10-23T07:56:03;9.70;99.90
57026;DHT22;43961;52.940;6.834;2022-10-23T07:58:29;9.70;99.90
57026;DHT22;43961;52.940;6.834;2022-10-23T08:01:00;9.70;99.90
57026;DHT22;43961;52.940;6.834;2022-10-23T08:03:29;9.80;99.90
57026;DHT22;43961;52.940;6.834;2022-10-23T08:05:56;9.90;99.90
57026;DHT22;43961;52.940;6.834;2022-10-23T08:08:23;9.90;99.90
57026;DHT22;43961;52.940;6.834;2022-10-23T08:10:51;10.00;99.90
57026;DHT22;43961;52.940;6.834;2022-10-23T08:13:17;10.10;99.90
57026;DHT22;43961;52.940;6.834;2022-10-23T08:15:46;10.20;99.90
57026;DHT22;43961;52.940;6.834;2022-10-23T08:18:12;10.20;99.90
57026;DHT22;43961;52.940;6.834;2022-10-23T08:20:42;10.30;99.90
57026;DHT22;43961;52.940;6.834;2022-10-23T08:23:09;10.50;99.90
57026;DHT22;43961;52.940;6.834;2022-10-23T08:25:37;10.50;99.90
57026;DHT22;43961;52.940;6.834;2022-10-23T08:28:02;10.70;99.90
57026;DHT22;43961;52.940;6.834;2022-10-23T08:30:28;10.70;99.90
57026;DHT22;43961;52.940;6.834;2022-10-23T08:32:54;10.70;99.90
57026;DHT22;43961;52.940;6.834;2022-10-23T08:35:19;10.80;99.90
57026;DHT22;43961;52.940;6.834;2022-10-23T08:37:45;10.90;99.90
57026;DHT22;43961;52.940;6.834;2022-10-23T08:40:22;11.00;99.90
57026;DHT22;43961;52.940;6.834;2022-10-23T08:45:54;11.30;99.90
57026;DHT22;43961;52.940;6.834;2022-10-23T08:53:51;11.60;99.90
57026;DHT22;43961;52.940;6.834;2022-10-23T08:56:26;11.60;99.90
57026;DHT22;43961;52.940;6.834;2022-10-23T09:02:04;11.80;99.90
57026;DHT22;43961;52.940;6.834;2022-10-23T09:04:37;11.80;99.90
57026;DHT22;43961;52.940;6.834;2022-10-23T09:12:47;12.10;99.90
57026;DHT22;43961;52.940;6.834;2022-10-23T09:15:29;12.20;99.90
57026;DHT22;43961;52.940;6.834;2022-10-23T09:18:02;12.30;99.90
57026;DHT22;43961;52.940;6.834;2022-10-23T09:20:32;12.50;99.90
57026;DHT22;43961;52.940;6.834;2022-10-23T09:23:20;12.40;99.90
57026;DHT22;43961;52.940;6.834;2022-10-23T09:25:47;12.50;99.90
57026;DHT22;43961;52.940;6.834;2022-10-23T09:28:25;12.60;99.90
57026;DHT22;43961;52.940;6.834;2022-10-23T09:30:51;12.70;99.90
57026;DHT22;43961;52.940;6.834;2022-10-23T09:33:23;12.80;99.90
57026;DHT22;43961;52.940;6.834;2022-10-23T09:38:47;12.90;99.90
57026;DHT22;43961;52.940;6.834;2022-10-23T09:43:46;13.10;99.90
57026;DHT22;43961;52.940;6.834;2022-10-23T09:46:23;13.20;99.90
57026;DHT22;43961;52.940;6.834;2022-10-23T09:48:56;13.30;99.90
57026;DHT22;43961;52.940;6.834;2022-10-23T09:51:22;13.40;99.90
57026;DHT22;43961;52.940;6.834;2022-10-23T09:53:58;13.40;99.90
57026;DHT22;43961;52.940;6.834;2022-10-23T09:56:29;13.70;99.90
57026;DHT22;43961;52.940;6.834;2022-10-23T09:59:02;13.70;99.90
57026;DHT22;43961;52.940;6.834;2022-10-23T10:01:35;13.70;99.90
57026;DHT22;43961;52.940;6.834;2022-10-23T10:04:09;13.70;99.90
57026;DHT22;43961;52.940;6.834;2022-10-23T10:06:35;13.80;99.90
57026;DHT22;43961;52.940;6.834;2022-10-23T10:09:13;13.90;99.90
57026;DHT22;43961;52.940;6.834;2022-10-23T10:11:50;14.00;99.90
57026;DHT22;43961;52.940;6.834;2022-10-23T10:14:25;14.00;99.90
57026;DHT22;43961;52.940;6.834;2022-10-23T10:25:15;14.30;99.90
57026;DHT22;43961;52.940;6.834;2022-10-23T10:30:22;14.90;99.90
57026;DHT22;43961;52.940;6.834;2022-10-23T10:33:01;14.50;99.90
57026;DHT22;43961;52.940;6.834;2022-10-23T10:38:50;14.60;99.90
57026;DHT22;43961;52.940;6.834;2022-10-23T10:46:58;15.00;99.90
57026;DHT22;43961;52.940;6.834;2022-10-23T10:57:42;15.10;99.90
57026;DHT22;43961;52.940;6.834;2022-10-23T11:00:20;15.10;99.90
57026;DHT22;43961;52.940;6.834;2022-10-23T11:05:30;15.20;99.90
57026;DHT22;43961;52.940;6.834;2022-10-23T11:10:39;15.30;99.90
57026;DHT22;43961;52.940;6.834;2022-10-23T11:16:10;15.20;99.90
57026;DHT22;43961;52.940;6.834;2022-10-23T11:18:41;15.20;99.90
57026;DHT22;43961;52.940;6.834;2022-10-23T11:29:42;15.20;99.90
57026;DHT22;43961;52.940;6.834;2022-10-23T11:38:44;15.20;99.90
57026;DHT22;43961;52.940;6.834;2022-10-23T11:41:27;15.30;99.90
57026;DHT22;43961;52.940;6.834;2022-10-23T11:44:00;15.20;99.90
57026;DHT22;43961;52.940;6.834;2022-10-23T11:46:37;15.20;99.90
57026;DHT22;43961;52.940;6.834;2022-10-23T11:49:17;15.20;99.90
57026;DHT22;43961;52.940;6.834;2022-10-23T11:51:43;15.20;99.90
57026;DHT22;43961;52.940;6.834;2022-10-23T11:56:36;15.10;99.90
57026;DHT22;43961;52.940;6.834;2022-10-23T12:01:47;15.20;99.90
57026;DHT22;43961;52.940;6.834;2022-10-23T12:06:56;15.20;99.90
57026;DHT22;43961;52.940;6.834;2022-10-23T12:14:39;15.30;99.90
57026;DHT22;43961;52.940;6.834;2022-10-23T12:19:51;15.30;99.90
57026;DHT22;43961;52.940;6.834;2022-10-23T12:22:18;15.30;99.90
57026;DHT22;43961;52.940;6.834;2022-10-23T12:35:47;15.50;99.90
57026;DHT22;43961;52.940;6.834;2022-10-23T12:38:21;15.50;99.90
57026;DHT22;43961;52.940;6.834;2022-10-23T12:40:54;15.50;99.90
57026;DHT22;43961;52.940;6.834;2022-10-23T12:43:30;15.70;99.90
57026;DHT22;43961;52.940;6.834;2022-10-23T12:46:14;15.70;99.90
57026;DHT22;43961;52.940;6.834;2022-10-23T12:48:49;15.70;99.90
57026;DHT22;43961;52.940;6.834;2022-10-23T12:51:22;15.60;99.90
57026;DHT22;43961;52.940;6.834;2022-10-23T12:53:49;15.70;99.90
57026;DHT22;43961;52.940;6.834;2022-10-23T12:56:15;15.80;99.90
57026;DHT22;43961;52.940;6.834;2022-10-23T12:58:56;15.70;99.90
57026;DHT22;43961;52.940;6.834;2022-10-23T13:01:31;15.70;99.90
57026;DHT22;43961;52.940;6.834;2022-10-23T13:06:52;15.70;99.90
57026;DHT22;43961;52.940;6.834;2022-10-23T13:09:40;15.80;99.90
57026;DHT22;43961;52.940;6.834;2022-10-23T13:12:07;15.70;99.90
57026;DHT22;43961;52.940;6.834;2022-10-23T13:14:55;15.70;99.90
57026;DHT22;43961;52.940;6.834;2022-10-23T13:17:33;15.80;99.90
57026;DHT22;43961;52.940;6.834;2022-10-23T13:20:09;15.80;99.90
57026;DHT22;43961;52.940;6.834;2022-10-23T13:22:35;15.80;99.90
57026;DHT22;43961;52.940;6.834;2022-10-23T13:25:22;15.70;99.90
57026;DHT22;43961;52.940;6.834;2022-10-23T13:27:49;15.70;99.90
57026;DHT22;43961;52.940;6.834;2022-10-23T13:30:30;15.80;99.90
57026;DHT22;43961;52.940;6.834;2022-10-23T13:32:56;15.80;99.90
57026;DHT22;43961;52.940;6.834;2022-10-23T13:35:23;15.70;99.90
57026;DHT22;43961;52.940;6.834;2022-10-23T13:37:48;15.70;99.90
57026;DHT22;43961;52.940;6.834;2022-10-23T13:40:24;15.80;99.90
57026;DHT22;43961;52.940;6.834;2022-10-23T13:42:51;15.80;99.90
57026;DHT22;43961;52.940;6.834;2022-10-23T13:45:21;15.70;99.90
57026;DHT22;43961;52.940;6.834;2022-10-23T13:47:47;15.70;99.90
57026;DHT22;43961;52.940;6.834;2022-10-23T13:50:13;15.70;99.90
57026;DHT22;43961;52.940;6.834;2022-10-23T13:52:38;15.70;99.90
57026;DHT22;43961;52.940;6.834;2022-10-23T13:55:21;15.70;99.90
57026;DHT22;43961;52.940;6.834;2022-10-23T13:57:47;15.70;99.90
57026;DHT22;43961;52.940;6.834;2022-10-23T14:00:13;15.70;99.90
57026;DHT22;43961;52.940;6.834;2022-10-23T14:02:40;15.60;99.90
57026;DHT22;43961;52.940;6.834;2022-10-23T14:05:06;15.70;99.90
57026;DHT22;43961;52.940;6.834;2022-10-23T14:07:31;15.60;99.90
57026;DHT22;43961;52.940;6.834;2022-10-23T14:09:57;15.60;99.90
57026;DHT22;43961;52.940;6.834;2022-10-23T14:12:23;15.70;99.90
57026;DHT22;43961;52.940;6.834;2022-10-23T14:14:52;15.70;99.90
57026;DHT22;43961;52.940;6.834;2022-10-23T14:17:20;15.70;99.90
57026;DHT22;43961;52.940;6.834;2022-10-23T14:19:46;15.70;99.90
57026;DHT22;43961;52.940;6.834;2022-10-23T14:22:12;15.60;99.90
57026;DHT22;43961;52.940;6.834;2022-10-23T14:24:38;15.60;99.90
57026;DHT22;43961;52.940;6.834;2022-10-23T14:27:03;15.60;99.90
57026;DHT22;43961;52.940;6.834;2022-10-23T14:29:30;15.70;99.90
57026;DHT22;43961;52.940;6.834;2022-10-23T14:31:55;15.60;99.90
57026;DHT22;43961;52.940;6.834;2022-10-23T14:34:21;15.60;99.90
57026;DHT22;43961;52.940;6.834;2022-10-23T14:36:47;16.00;99.90
57026;DHT22;43961;52.940;6.834;2022-10-23T14:39:12;15.50;99.90
57026;DHT22;43961;52.940;6.834;2022-10-23T14:41:38;15.60;99.90
57026;DHT22;43961;52.940;6.834;2022-10-23T14:44:05;15.60;99.90
57026;DHT22;43961;52.940;6.834;2022-10-23T14:46:31;15.50;99.90
57026;DHT22;43961;52.940;6.834;2022-10-23T14:48:57;15.50;99.90
57026;DHT22;43961;52.940;6.834;2022-10-23T14:51:25;15.40;99.90
57026;DHT22;43961;52.940;6.834;2022-10-23T14:54:02;15.50;99.90
57026;DHT22;43961;52.940;6.834;2022-10-23T14:56:30;15.40;99.90
57026;DHT22;43961;52.940;6.834;2022-10-23T14:58:56;15.50;99.90
57026;DHT22;43961;52.940;6.834;2022-10-23T15:01:38;15.40;99.90
57026;DHT22;43961;52.940;6.834;2022-10-23T15:04:05;15.40;99.90
57026;DHT22;43961;52.940;6.834;2022-10-23T15:06:32;15.40;99.90
57026;DHT22;43961;52.940;6.834;2022-10-23T15:08:57;15.40;99.90
57026;DHT22;43961;52.940;6.834;2022-10-23T15:11:23;15.30;99.90
57026;DHT22;43961;52.940;6.834;2022-10-23T15:13:50;15.30;99.90
57026;DHT22;43961;52.940;6.834;2022-10-23T15:16:16;15.30;99.90
57026;DHT22;43961;52.940;6.834;2022-10-23T15:18:42;15.30;99.90
57026;DHT22;43961;52.940;6.834;2022-10-23T15:21:08;15.30;99.90
57026;DHT22;43961;52.940;6.834;2022-10-23T15:23:36;15.40;99.90
57026;DHT22;43961;52.940;6.834;2022-10-23T15:26:06;15.30;99.90
57026;DHT22;43961;52.940;6.834;2022-10-23T15:28:32;15.30;99.90
57026;DHT22;43961;52.940;6.834;2022-10-23T15:30:58;15.30;99.90
57026;DHT22;43961;52.940;6.834;2022-10-23T15:33:24;15.20;99.90
57026;DHT22;43961;52.940;6.834;2022-10-23T15:35:51;15.10;99.90
57026;DHT22;43961;52.940;6.834;2022-10-23T15:38:16;15.20;99.90
57026;DHT22;43961;52.940;6.834;2022-10-23T15:40:42;15.30;99.90
57026;DHT22;43961;52.940;6.834;2022-10-23T15:43:09;15.10;99.90
57026;DHT22;43961;52.940;6.834;2022-10-23T15:45:36;15.20;99.90
57026;DHT22;43961;52.940;6.834;2022-10-23T15:48:03;15.10;99.90
57026;DHT22;43961;52.940;6.834;2022-10-23T15:50:28;15.10;99.90
57026;DHT22;43961;52.940;6.834;2022-10-23T15:52:54;15.10;99.90
57026;DHT22;43961;52.940;6.834;2022-10-23T15:55:20;15.10;99.90
57026;DHT22;43961;52.940;6.834;2022-10-23T15:57:45;15.00;99.90
57026;DHT22;43961;52.940;6.834;2022-10-23T16:00:12;15.00;99.90
57026;DHT22;43961;52.940;6.834;2022-10-23T16:02:38;15.00;99.90
57026;DHT22;43961;52.940;6.834;2022-10-23T16:05:04;15.00;99.90
57026;DHT22;43961;52.940;6.834;2022-10-23T16:07:30;14.90;99.90
57026;DHT22;43961;52.940;6.834;2022-10-23T16:09:56;15.00;99.90
57026;DHT22;43961;52.940;6.834;2022-10-23T16:12:22;15.00;99.90
57026;DHT22;43961;52.940;6.834;2022-10-23T16:14:48;14.70;99.90
57026;DHT22;43961;52.940;6.834;2022-10-23T16:17:13;14.70;99.90
57026;DHT22;43961;52.940;6.834;2022-10-23T16:19:39;14.70;99.90
57026;DHT22;43961;52.940;6.834;2022-10-23T16:22:06;14.70;99.90
57026;DHT22;43961;52.940;6.834;2022-10-23T16:24:32;14.60;99.90
57026;DHT22;43961;52.940;6.834;2022-10-23T16:26:58;14.60;99.90
57026;DHT22;43961;52.940;6.834;2022-10-23T16:29:25;14.60;99.90
57026;DHT22;43961;52.940;6.834;2022-10-23T16:31:53;14.60;99.90
57026;DHT22;43961;52.940;6.834;2022-10-23T16:34:19;14.50;99.90
57026;DHT22;43961;52.940;6.834;2022-10-23T16:36:45;14.50;99.90
57026;DHT22;43961;52.940;6.834;2022-10-23T16:39:13;14.50;99.90
57026;DHT22;43961;52.940;6.834;2022-10-23T16:41:39;14.40;99.90
57026;DHT22;43961;52.940;6.834;2022-10-23T16:44:05;14.50;99.90
57026;DHT22;43961;52.940;6.834;2022-10-23T16:46:31;14.50;99.90
57026;DHT22;43961;52.940;6.834;2022-10-23T16:48:58;14.40;99.90
57026;DHT22;43961;52.940;6.834;2022-10-23T16:51:25;14.40;99.90
57026;DHT22;43961;52.940;6.834;2022-10-23T16:53:52;14.30;99.90
57026;DHT22;43961;52.940;6.834;2022-10-23T16:56:20;14.40;99.90
57026;DHT22;43961;52.940;6.834;2022-10-23T16:58:46;14.40;99.90
57026;DHT22;43961;52.940;6.834;2022-10-23T17:01:18;14.40;99.90
57026;DHT22;43961;52.940;6.834;2022-10-23T17:03:47;14.20;99.90
57026;DHT22;43961;52.940;6.834;2022-10-23T17:06:15;14.20;99.90
57026;DHT22;43961;52.940;6.834;2022-10-23T17:08:42;14.20;99.90
57026;DHT22;43961;52.940;6.834;2022-10-23T17:13:36;14.00;99.90
57026;DHT22;43961;52.940;6.834;2022-10-23T17:16:08;14.00;99.90
57026;DHT22;43961;52.940;6.834;2022-10-23T17:18:34;13.90;99.90
57026;DHT22;43961;52.940;6.834;2022-10-23T17:21:00;13.90;99.90
57026;DHT22;43961;52.940;6.834;2022-10-23T17:23:27;13.80;99.90
57026;DHT22;43961;52.940;6.834;2022-10-23T17:25:53;13.80;99.90
57026;DHT22;43961;52.940;6.834;2022-10-23T17:28:19;13.90;99.90
57026;DHT22;43961;52.940;6.834;2022-10-23T17:30:44;13.90;99.90
57026;DHT22;43961;52.940;6.834;2022-10-23T17:33:10;13.90;99.90
57026;DHT22;43961;52.940;6.834;2022-10-23T17:35:35;14.00;99.90
57026;DHT22;43961;52.940;6.834;2022-10-23T17:38:02;14.10;99.90
57026;DHT22;43961;52.940;6.834;2022-10-23T17:40:30;14.00;99.90
57026;DHT22;43961;52.940;6.834;2022-10-23T17:42:58;14.20;99.90
57026;DHT22;43961;52.940;6.834;2022-10-23T17:45:24;14.20;99.90
57026;DHT22;43961;52.940;6.834;2022-10-23T17:47:50;14.20;99.90
57026;DHT22;43961;52.940;6.834;2022-10-23T17:50:15;14.40;99.90
57026;DHT22;43961;52.940;6.834;2022-10-23T17:52:41;14.20;99.90
57026;DHT22;43961;52.940;6.834;2022-10-23T17:55:07;14.20;99.90